Shakopee, Minnesota
Current Conditions -  °F | °C
As of 4:53 PM on Saturday 20 Dec 2014 (Local Time) from KFCM Reporting Station
Overcast Overcast  
Wind Chill: 21°   Ceiling: 1000
Heat Index: 31°   Visibility: 10mi
Dew Point: 27°   Wind: 13mph
Humidity: 85%   Direction: 180°S
Pressure: 30.11"   Gusts: NA
Location:  44.8°N, 93.53°W
Report Text: KFCM 202253Z 18011KT 10SM OVC010 M01/M03 A3011 RMK AO2 SLP205 T10061028
Loading
Personal Weather Stations






























Interactive Weather Map New forecast layout! Learn more

10-Day Weather Forecast

Advertisements
Track Severe Weather on mobile